Terminal Aerodrome Forecast
Issued by NWS Jackson, MS

Home | Current Version | Previous Version | Text Only | Print | Product List | Glossary On
Versions: 1 2 3 4 5 6 7 8 9 10 11 12 13 14 15 16
000
FTUS44 KJAN 021135
TAFMEI
TAF
KMEI 021135Z 0212/0312 34004KT 6SM BR SCT005
     FM021400 36005KT P6SM SCT025
     FM021700 36004KT P6SM SCT040=

USA.gov is the U.S. government's official web portal to all federal, state and local government web resources and services.